PAYA/YAK METAR and TAF weather

Enter ICAO airport designator
Station Type Date Time Source
PAYA METAR 2021/08/01 16:53 UTC NOAA

PAYA 011653Z AUTO 13005KT 10SM BKN012 16/13 A3018 RMK AO2 SLP221 T01560128 TSNO


Station Type Date Time Source
PAYA Decoded METAR 2021/08/01 16:53 UTC NOAA

YAKUTAT AIRPORT, AK, United States (PAYA) 59-30N 139-40W 9M
Aug 01, 2021 - 12:53 PM EDT / 2021.08.01 1653 UTC
Wind: from the SE (130 degrees) at 6 MPH (5 KT):0
Visibility: 10 mile(s):0
Sky conditions: mostly cloudy
Temperature: 60.1 F (15.6 C)
Dew Point: 55.0 F (12.8 C)
Relative Humidity: 83%
Pressure (altimeter): 30.18 in. Hg (1022 hPa)
ob: PAYA 011653Z AUTO 13005KT 10SM BKN012 16/13 A3018 RMK AO2 SLP221 T01560128 TSNO
cycle: 17

Station Type Date Time Source
PAYA TAF 2021/08/01 12:27 UTC NOAA

TAF PAYA 011124Z 0112/0212 12004KT P6SM VCFG BKN006
TEMPO 0112/0116 5SM BR OVC004
FM011800 VRB04KT P6SM FEW003 BKN015
FM020300 27005KT P6SM BKN007
AMD LTD TO CLD VIS AND WIND

Example: see airport list